createdAt,value
2017-08-18T00:00:20.791Z,94583.00
2017-08-18T00:02:48.491Z,94578.95
2017-08-18T00:05:16.208Z,94570.80
2017-08-18T00:07:43.901Z,94577.84
2017-08-18T00:10:11.680Z,94571.32
2017-08-18T00:12:40.234Z,94574.60
2017-08-18T00:17:55.039Z,94567.86
2017-08-18T00:20:22.741Z,94564.78
2017-08-18T00:22:50.505Z,94568.46
2017-08-18T00:25:18.287Z,94561.52
2017-08-18T00:27:45.994Z,94562.44
2017-08-18T00:38:00.447Z,94553.19
2017-08-18T00:40:28.138Z,94556.09
2017-08-18T00:42:55.832Z,94559.55
2017-08-18T00:45:23.613Z,94555.84
2017-08-18T00:47:51.395Z,94560.09
2017-08-18T00:50:19.093Z,94556.30
2017-08-18T00:52:46.812Z,94553.02
2017-08-18T00:55:14.585Z,94552.04
2017-08-18T00:57:42.277Z,94551.06
2017-08-18T01:00:09.985Z,94555.13
2017-08-18T01:02:37.805Z,94561.97
2017-08-18T01:05:05.594Z,94556.03
2017-08-18T01:07:33.436Z,94554.47
2017-08-18T01:10:01.193Z,94550.63
2017-08-18T01:12:28.984Z,94553.77
2017-08-18T01:14:56.796Z,94560.68
2017-08-18T01:17:24.497Z,94556.27
2017-08-18T01:19:52.328Z,94553.02
2017-08-18T01:22:20.053Z,94553.64
2017-08-18T01:24:47.843Z,94550.53
2017-08-18T01:27:15.606Z,94552.66
2017-08-18T01:29:43.340Z,94556.91
2017-08-18T01:32:11.257Z,94556.25
2017-08-18T01:34:39.040Z,94547.62
2017-08-18T01:37:06.790Z,94549.36
2017-08-18T01:39:34.592Z,94556.73
2017-08-18T01:42:02.417Z,94550.83
2017-08-18T01:44:30.150Z,94550.87
2017-08-18T01:46:57.910Z,94544.61
2017-08-18T01:49:25.625Z,94550.85
2017-08-18T01:51:53.325Z,94555.98
2017-08-18T01:54:21.105Z,94546.34
2017-08-18T01:56:48.870Z,94555.82
2017-08-18T01:59:16.707Z,94548.34
2017-08-18T02:01:44.417Z,94556.34
2017-08-18T02:04:12.334Z,94554.52
2017-08-18T02:06:40.092Z,94558.55
2017-08-18T02:09:07.809Z,94556.95
2017-08-18T02:11:35.614Z,94561.09
2017-08-18T02:14:03.403Z,94563.00
2017-08-18T02:16:31.123Z,94557.48
2017-08-18T02:18:58.875Z,94559.81
2017-08-18T02:21:26.632Z,94560.97
2017-08-18T02:23:54.389Z,94560.57
2017-08-18T02:26:22.105Z,94559.05
2017-08-18T02:28:49.810Z,94556.69
2017-08-18T02:31:17.518Z,94559.90
2017-08-18T02:33:45.363Z,94561.91
2017-08-18T02:36:13.136Z,94559.69
2017-08-18T02:38:40.881Z,94561.27
2017-08-18T02:41:08.565Z,94556.17
2017-08-18T02:43:36.314Z,94557.18
2017-08-18T02:46:04.059Z,94553.61
2017-08-18T02:48:31.817Z,94553.45
2017-08-18T02:50:59.529Z,94563.97
2017-08-18T02:53:27.241Z,94568.70
2017-08-18T02:55:55.033Z,94564.53
2017-08-18T02:58:22.749Z,94566.17
2017-08-18T03:00:50.438Z,94562.73
2017-08-18T03:03:18.169Z,94561.38
2017-08-18T03:05:45.847Z,94560.67
2017-08-18T03:08:13.567Z,94553.61
2017-08-18T03:10:41.349Z,94558.03
2017-08-18T03:13:09.081Z,94559.33
2017-08-18T03:15:36.793Z,94564.28
2017-08-18T03:18:04.510Z,94562.86
2017-08-18T03:20:32.538Z,94568.28
2017-08-18T03:23:00.358Z,94563.97
2017-08-18T03:25:28.044Z,94563.47
2017-08-18T03:27:55.825Z,94575.28
2017-08-18T03:30:23.541Z,94575.79
2017-08-18T03:32:51.248Z,94572.34
2017-08-18T03:35:18.968Z,94575.27
2017-08-18T03:37:46.749Z,94580.25
2017-08-18T03:40:14.442Z,94582.24
2017-08-18T03:42:42.164Z,94582.87
2017-08-18T03:45:09.944Z,94587.88
2017-08-18T03:47:37.676Z,94587.48
2017-08-18T03:50:05.413Z,94589.95
2017-08-18T03:52:33.391Z,94591.30
2017-08-18T03:55:01.113Z,94590.46
2017-08-18T03:57:28.855Z,94591.78
2017-08-18T03:59:56.558Z,94588.05
2017-08-18T04:02:24.501Z,94591.45
2017-08-18T04:04:52.235Z,94594.95
2017-08-18T04:07:20.013Z,94597.30
2017-08-18T04:09:47.692Z,94594.80
2017-08-18T04:12:15.430Z,94598.66
2017-08-18T04:14:43.125Z,94605.21
2017-08-18T04:17:10.866Z,94600.20
2017-08-18T04:19:38.706Z,94597.38
2017-08-18T04:22:06.391Z,94600.68
2017-08-18T04:24:34.141Z,94600.48
2017-08-18T04:27:01.887Z,94594.40
2017-08-18T04:29:29.595Z,94595.79
2017-08-18T04:31:57.369Z,94599.65
2017-08-18T04:34:25.121Z,94598.25
2017-08-18T04:36:53.954Z,94602.08
2017-08-18T04:39:21.615Z,94595.48
2017-08-18T04:41:49.337Z,94600.88
2017-08-18T04:44:17.067Z,94602.66
2017-08-18T04:46:44.761Z,94603.97
2017-08-18T04:49:12.461Z,94610.77
2017-08-18T04:51:40.212Z,94611.09
2017-08-18T04:54:07.934Z,94604.33
2017-08-18T04:56:35.653Z,94615.61
2017-08-18T04:59:03.433Z,94611.92
2017-08-18T05:01:31.153Z,94610.41
2017-08-18T05:03:58.901Z,94609.30
2017-08-18T05:06:26.678Z,94612.30
2017-08-18T05:08:54.428Z,94618.06
2017-08-18T05:11:22.130Z,94622.19
2017-08-18T05:13:50.097Z,94620.95
2017-08-18T05:16:17.822Z,94620.41
2017-08-18T05:18:45.584Z,94618.56
2017-08-18T05:21:13.330Z,94617.74
2017-08-18T05:23:41.123Z,94620.52
2017-08-18T05:26:08.850Z,94618.80
2017-08-18T05:28:36.597Z,94621.38
2017-08-18T05:31:04.321Z,94619.05
2017-08-18T05:33:32.138Z,94616.17
2017-08-18T05:35:59.939Z,94618.27
2017-08-18T05:38:27.652Z,94611.87
2017-08-18T05:40:55.390Z,94612.56
2017-08-18T05:43:23.144Z,94614.88
2017-08-18T05:45:50.865Z,94616.95
2017-08-18T05:48:18.635Z,94616.96
2017-08-18T05:50:46.417Z,94611.27
2017-08-18T05:53:14.174Z,94608.52
2017-08-18T05:55:41.936Z,94603.95
2017-08-18T05:58:09.909Z,94606.84
2017-08-18T06:00:37.727Z,94604.08
2017-08-18T06:03:05.441Z,94606.70
2017-08-18T06:05:33.141Z,94608.42
2017-08-18T06:08:00.919Z,94609.73
2017-08-18T06:10:28.696Z,94606.11
2017-08-18T06:12:56.483Z,94606.58
2017-08-18T06:15:24.976Z,94603.14
2017-08-18T06:17:52.740Z,94601.86
2017-08-18T06:20:20.536Z,94594.05
2017-08-18T06:22:48.297Z,94594.13
2017-08-18T06:25:16.083Z,94595.83
2017-08-18T06:27:43.843Z,94593.81
2017-08-18T06:30:11.692Z,94592.25
2017-08-18T06:32:39.469Z,94585.16
2017-08-18T06:35:07.254Z,94588.87
2017-08-18T06:37:35.028Z,94583.70
2017-08-18T06:40:02.729Z,94588.10
2017-08-18T06:42:30.441Z,94585.44
2017-08-18T06:44:58.183Z,94581.70
2017-08-18T06:47:25.903Z,94579.64
2017-08-18T06:49:53.655Z,94574.48
2017-08-18T06:52:21.382Z,94570.77
2017-08-18T06:54:49.145Z,94566.09
2017-08-18T06:57:16.893Z,94567.94
2017-08-18T06:59:44.632Z,94567.08
2017-08-18T07:02:12.405Z,94563.46
2017-08-18T07:04:40.203Z,94562.59
2017-08-18T07:07:08.006Z,94559.03
2017-08-18T07:09:35.747Z,94561.13
2017-08-18T07:12:03.564Z,94557.64
2017-08-18T07:14:31.326Z,94550.97
2017-08-18T07:16:59.050Z,94557.55
2017-08-18T07:19:26.819Z,94551.19
2017-08-18T07:21:54.554Z,94555.84
2017-08-18T07:24:22.321Z,94549.42
2017-08-18T07:26:50.145Z,94545.06
2017-08-18T07:29:17.962Z,94544.34
2017-08-18T07:31:45.885Z,94540.41
2017-08-18T07:34:13.610Z,94532.31
2017-08-18T07:36:41.392Z,94529.72
2017-08-18T07:39:09.161Z,94529.34
2017-08-18T07:41:36.859Z,94522.59
2017-08-18T07:44:04.600Z,94517.03
2017-08-18T07:46:32.321Z,94516.90
2017-08-18T07:49:00.112Z,94514.25
2017-08-18T07:51:27.826Z,94510.95
2017-08-18T07:53:55.589Z,94505.89
2017-08-18T07:56:23.305Z,94500.69
2017-08-18T07:58:52.281Z,94501.20
2017-08-18T08:01:20.051Z,94500.17
2017-08-18T08:03:47.756Z,94498.56
2017-08-18T08:06:15.472Z,94494.55
2017-08-18T08:08:43.221Z,94486.91
2017-08-18T08:11:10.916Z,94483.73
2017-08-18T08:13:38.690Z,94485.05
2017-08-18T08:16:06.482Z,94484.20
2017-08-18T08:18:34.237Z,94476.51
2017-08-18T08:21:01.992Z,94473.63
2017-08-18T08:23:29.826Z,94471.37
2017-08-18T08:25:57.636Z,94459.48
2017-08-18T08:28:25.419Z,94460.63
2017-08-18T08:30:53.205Z,94459.14
2017-08-18T08:33:21.012Z,94465.75
2017-08-18T08:35:49.854Z,94459.72
2017-08-18T08:38:18.662Z,94457.27
2017-08-18T08:40:46.477Z,94454.39
2017-08-18T08:43:14.289Z,94456.30
2017-08-18T08:45:42.006Z,94456.50
2017-08-18T08:48:09.721Z,94451.11
2017-08-18T08:50:37.516Z,94450.58
2017-08-18T08:53:05.298Z,94448.18
2017-08-18T08:55:33.102Z,94443.33
2017-08-18T08:58:00.861Z,94439.48
2017-08-18T09:00:28.643Z,94441.70
2017-08-18T09:02:56.338Z,94439.05
2017-08-18T09:05:24.118Z,94427.56
2017-08-18T09:07:51.821Z,94427.59
2017-08-18T09:10:19.530Z,94427.13
2017-08-18T09:12:47.324Z,94425.23
2017-08-18T09:15:15.077Z,94420.43
2017-08-18T09:17:42.848Z,94417.38
2017-08-18T09:20:10.670Z,94406.60
2017-08-18T09:22:38.429Z,94402.20
2017-08-18T09:25:06.222Z,94394.55
2017-08-18T09:27:33.928Z,94394.11
2017-08-18T09:30:01.704Z,94390.48
2017-08-18T09:32:29.459Z,94385.88
2017-08-18T09:34:57.149Z,94380.84
2017-08-18T09:37:24.868Z,94378.55
2017-08-18T09:39:52.667Z,94374.66
2017-08-18T09:42:20.382Z,94371.86
2017-08-18T09:44:48.092Z,94370.59
2017-08-18T09:47:15.916Z,94362.86
2017-08-18T09:49:55.523Z,94352.91
2017-08-18T09:52:38.934Z,94350.62
2017-08-18T09:55:18.529Z,94351.75
2017-08-18T09:57:58.005Z,94343.98
2017-08-18T10:00:25.779Z,94339.81
2017-08-18T10:02:53.485Z,94334.03
2017-08-18T10:05:21.310Z,94333.75
2017-08-18T10:07:49.045Z,94336.42
2017-08-18T10:10:16.770Z,94321.80
2017-08-18T10:12:44.539Z,94315.44
2017-08-18T10:15:12.321Z,94314.23
2017-08-18T10:17:40.072Z,94312.89
2017-08-18T10:20:07.892Z,94300.21
2017-08-18T10:22:35.655Z,94297.27
2017-08-18T10:25:03.474Z,94294.61
2017-08-18T10:27:31.267Z,94288.34
2017-08-18T10:29:59.039Z,94285.22
2017-08-18T10:32:26.763Z,94283.05
2017-08-18T10:34:54.548Z,94284.72
2017-08-18T10:37:22.327Z,94279.81
2017-08-18T10:39:50.075Z,94277.56
2017-08-18T10:42:17.900Z,94275.52
2017-08-18T10:44:45.665Z,94271.63
2017-08-18T10:47:13.407Z,94268.00
2017-08-18T10:49:41.180Z,94264.08
2017-08-18T10:52:08.959Z,94263.10
2017-08-18T10:54:36.825Z,94258.52
2017-08-18T10:57:04.665Z,94261.42
2017-08-18T10:59:32.466Z,94256.74
2017-08-18T11:02:00.241Z,94241.71
2017-08-18T11:04:28.014Z,94240.47
2017-08-18T11:06:55.772Z,94231.67
2017-08-18T11:09:23.515Z,94231.17
2017-08-18T11:11:51.329Z,94226.52
2017-08-18T11:14:19.140Z,94218.34
2017-08-18T11:16:46.944Z,94217.20
2017-08-18T11:19:14.739Z,94218.02
2017-08-18T11:21:42.461Z,94213.97
2017-08-18T11:24:10.247Z,94206.08
2017-08-18T11:26:38.050Z,94197.92
2017-08-18T11:29:06.363Z,94195.11
2017-08-18T11:31:34.165Z,94189.44
2017-08-18T11:34:02.494Z,94184.09
2017-08-18T11:36:32.106Z,94178.98
2017-08-18T11:38:59.872Z,94175.09
2017-08-18T11:41:27.616Z,94173.58
2017-08-18T11:43:55.378Z,94176.97
2017-08-18T11:46:23.112Z,94178.87
2017-08-18T11:48:51.013Z,94166.17
2017-08-18T11:51:18.927Z,94164.30
2017-08-18T11:53:46.680Z,94159.45
2017-08-18T11:56:14.755Z,94155.69
2017-08-18T11:58:43.679Z,94145.00
2017-08-18T12:01:11.451Z,94146.36
2017-08-18T12:03:39.239Z,94136.78
2017-08-18T12:06:07.844Z,94137.86
2017-08-18T12:08:35.690Z,94128.05
2017-08-18T12:11:03.450Z,94123.55
2017-08-18T12:13:31.235Z,94130.84
2017-08-18T12:15:59.012Z,94127.50
2017-08-18T12:18:26.770Z,94120.37
2017-08-18T12:20:54.545Z,94117.03
2017-08-18T12:23:22.293Z,94117.49
2017-08-18T12:25:50.134Z,94109.09
2017-08-18T12:28:17.913Z,94105.67
2017-08-18T12:30:45.702Z,94100.16
2017-08-18T12:33:13.452Z,94106.48
2017-08-18T12:35:41.223Z,94099.16
2017-08-18T12:38:09.037Z,94099.63
2017-08-18T12:40:36.882Z,94102.79
2017-08-18T12:43:04.721Z,94095.93
2017-08-18T12:45:32.526Z,94094.78
2017-08-18T12:48:00.242Z,94098.89
2017-08-18T12:50:27.984Z,94089.50
2017-08-18T12:52:56.094Z,94084.01
2017-08-18T12:55:23.937Z,94078.00
2017-08-18T12:57:51.650Z,94072.04
2017-08-18T13:00:19.456Z,94078.50
2017-08-18T13:02:47.286Z,94077.66
2017-08-18T13:05:15.010Z,94067.25
2017-08-18T13:07:42.758Z,94072.55
2017-08-18T13:10:10.463Z,94067.48
2017-08-18T13:12:38.161Z,94076.95
2017-08-18T13:15:05.935Z,94066.86
2017-08-18T13:17:33.712Z,94062.20
2017-08-18T13:20:01.515Z,94063.00
2017-08-18T13:22:30.263Z,94055.78
2017-08-18T13:24:59.202Z,94050.07
2017-08-18T13:27:26.982Z,94048.67
2017-08-18T13:29:54.794Z,94040.56
2017-08-18T13:32:22.644Z,94047.53
2017-08-18T13:34:51.544Z,94037.41
2017-08-18T13:37:20.397Z,94034.81
2017-08-18T13:39:48.144Z,94030.72
2017-08-18T13:42:16.060Z,94039.78
2017-08-18T13:44:43.838Z,94036.34
2017-08-18T13:47:11.612Z,94032.03
2017-08-18T13:49:39.439Z,94029.55
2017-08-18T13:52:07.945Z,94028.98
2017-08-18T13:54:35.762Z,94021.41
2017-08-18T13:57:04.806Z,94016.80
2017-08-18T13:59:32.612Z,94017.44
2017-08-18T14:02:01.545Z,94022.66
2017-08-18T14:04:29.344Z,94015.21
2017-08-18T14:06:58.327Z,94011.92
2017-08-18T14:09:26.083Z,94015.42
2017-08-18T14:11:54.012Z,94007.25
2017-08-18T14:14:21.809Z,94008.98
2017-08-18T14:16:49.575Z,93999.28
2017-08-18T14:19:17.351Z,93995.70
2017-08-18T14:21:45.148Z,94002.02
2017-08-18T14:24:12.898Z,93999.31
2017-08-18T14:26:46.204Z,94004.73
2017-08-18T14:29:13.953Z,93991.41
2017-08-18T14:31:41.802Z,93992.06
2017-08-18T14:34:09.528Z,93986.61
2017-08-18T14:36:37.314Z,93987.77
2017-08-18T14:39:05.423Z,93983.05
2017-08-18T14:41:33.140Z,93984.19
2017-08-18T14:44:00.911Z,93981.98
2017-08-18T14:46:28.679Z,93984.77
2017-08-18T14:48:56.387Z,93978.91
2017-08-18T14:51:24.171Z,93979.92
2017-08-18T14:53:51.877Z,93974.59
2017-08-18T14:56:19.639Z,93973.95
2017-08-18T14:58:47.384Z,93968.92
2017-08-18T15:01:15.199Z,93978.41
2017-08-18T15:03:42.958Z,93973.84
2017-08-18T15:06:11.929Z,93975.69
2017-08-18T15:08:39.675Z,93973.70
2017-08-18T15:11:07.425Z,93965.92
2017-08-18T15:13:35.181Z,93962.84
2017-08-18T15:16:02.883Z,93974.27
2017-08-18T15:18:31.491Z,93966.35
2017-08-18T15:20:59.277Z,93969.14
2017-08-18T15:23:27.087Z,93964.80
2017-08-18T15:25:54.813Z,93964.65
2017-08-18T15:28:22.497Z,93965.48
2017-08-18T15:30:50.307Z,93962.78
2017-08-18T15:33:18.074Z,93961.34
2017-08-18T15:35:45.807Z,93954.25
2017-08-18T15:38:13.518Z,93963.52
2017-08-18T15:40:41.307Z,93956.37
2017-08-18T15:43:09.118Z,93957.77
2017-08-18T15:45:36.838Z,93955.58
2017-08-18T15:48:04.705Z,93950.65
2017-08-18T15:50:32.441Z,93953.02
2017-08-18T15:53:00.180Z,93954.45
2017-08-18T15:55:27.971Z,93950.70
2017-08-18T15:57:55.706Z,93953.88
2017-08-18T16:00:23.511Z,93945.06
2017-08-18T16:02:51.251Z,93942.77
2017-08-18T16:05:19.023Z,93948.58
2017-08-18T16:07:46.760Z,93949.77
2017-08-18T16:10:14.486Z,93939.61
2017-08-18T16:12:42.194Z,93930.58
2017-08-18T16:15:10.008Z,93930.97
2017-08-18T16:17:37.772Z,93936.13
2017-08-18T16:20:05.593Z,93928.95
2017-08-18T16:22:33.318Z,93929.16
2017-08-18T16:25:01.101Z,93927.72
2017-08-18T16:27:28.783Z,93918.84
2017-08-18T16:29:56.560Z,93913.45
2017-08-18T16:32:24.356Z,93916.97
2017-08-18T16:34:52.095Z,93919.88
2017-08-18T16:37:19.832Z,93922.92
2017-08-18T16:39:47.632Z,93918.00
2017-08-18T16:42:15.390Z,93921.72
2017-08-18T16:44:43.173Z,93918.17
2017-08-18T16:47:11.010Z,93911.13
2017-08-18T16:49:38.746Z,93913.91
2017-08-18T16:52:06.565Z,93912.14
2017-08-18T16:54:34.358Z,93909.61
2017-08-18T16:57:02.173Z,93908.14
2017-08-18T16:59:29.871Z,93904.80
2017-08-18T17:01:57.610Z,93911.84
2017-08-18T17:04:25.344Z,93904.63
2017-08-18T17:06:53.158Z,93900.77
2017-08-18T17:09:20.931Z,93896.76
2017-08-18T17:11:48.767Z,93899.41
2017-08-18T17:14:16.558Z,93894.83
2017-08-18T17:16:44.332Z,93894.92
2017-08-18T17:19:12.265Z,93899.50
2017-08-18T17:21:39.989Z,93901.23
2017-08-18T17:24:07.723Z,93902.63
2017-08-18T17:26:35.511Z,93898.90
2017-08-18T17:29:03.275Z,93905.34
2017-08-18T17:31:31.055Z,93896.50
2017-08-18T17:33:58.775Z,93898.45
2017-08-18T17:36:26.583Z,93889.77
2017-08-18T17:38:55.454Z,93892.77
2017-08-18T17:41:23.254Z,93900.44
2017-08-18T17:43:51.026Z,93897.71
2017-08-18T17:46:19.232Z,93894.28
2017-08-18T17:48:46.976Z,93897.17
2017-08-18T17:51:14.820Z,93898.13
2017-08-18T17:53:42.598Z,93897.97
2017-08-18T17:56:10.434Z,93893.39
2017-08-18T17:58:38.155Z,93890.81
2017-08-18T18:01:06.280Z,93891.28
2017-08-18T18:03:35.049Z,93886.11
2017-08-18T18:06:02.784Z,93883.63
2017-08-18T18:08:30.584Z,93880.58
2017-08-18T18:10:59.369Z,93883.00
2017-08-18T18:13:27.187Z,93890.27
2017-08-18T18:15:54.995Z,93895.30
2017-08-18T18:18:22.739Z,93896.73
2017-08-18T18:20:50.478Z,93903.60
2017-08-18T18:23:18.330Z,93900.17
2017-08-18T18:25:46.219Z,93903.05
2017-08-18T18:28:13.951Z,93905.95
2017-08-18T18:30:42.074Z,93907.52
2017-08-18T18:33:10.801Z,93905.88
2017-08-18T18:35:38.838Z,93915.42
2017-08-18T18:38:07.803Z,93906.55
2017-08-18T18:40:35.604Z,93900.87
2017-08-18T18:43:03.450Z,93896.44
2017-08-18T18:45:32.289Z,93899.48
2017-08-18T18:48:01.463Z,93897.30
2017-08-18T18:50:29.307Z,93900.97
2017-08-18T18:52:57.299Z,93902.50
2017-08-18T18:55:25.163Z,93909.08
2017-08-18T18:57:53.004Z,93906.80
2017-08-18T19:00:20.822Z,93905.92
2017-08-18T19:02:48.682Z,93901.78
2017-08-18T19:05:17.162Z,93904.43
2017-08-18T19:07:45.029Z,93909.63
2017-08-18T19:10:13.906Z,93915.95
2017-08-18T19:12:42.252Z,93923.14
2017-08-18T19:15:10.039Z,93910.03
2017-08-18T19:17:37.917Z,93915.00
2017-08-18T19:20:05.737Z,93909.99
2017-08-18T19:22:33.622Z,93910.42
2017-08-18T19:25:01.394Z,93906.72
2017-08-18T19:27:29.186Z,93913.41
2017-08-18T19:29:57.012Z,93917.48
2017-08-18T19:32:24.963Z,93912.72
2017-08-18T19:34:52.737Z,93917.02
2017-08-18T19:37:20.492Z,93924.11
2017-08-18T19:39:48.319Z,93927.23
2017-08-18T19:42:16.090Z,93919.97
2017-08-18T19:44:43.846Z,93927.39
2017-08-18T19:47:11.818Z,93936.89
2017-08-18T19:49:39.595Z,93940.80
2017-08-18T19:52:07.377Z,93950.06
2017-08-18T19:54:35.183Z,93951.19
2017-08-18T19:57:02.975Z,93958.39
2017-08-18T19:59:31.953Z,93953.65
2017-08-18T20:01:59.699Z,93958.37
2017-08-18T20:04:27.522Z,93964.79
2017-08-18T20:06:55.325Z,93963.56
2017-08-18T20:09:23.192Z,93965.56
2017-08-18T20:11:51.706Z,93966.55
2017-08-18T20:14:19.495Z,93965.08
2017-08-18T20:16:48.357Z,93975.33
2017-08-18T20:19:16.248Z,93975.32
2017-08-18T20:21:44.049Z,93981.59
2017-08-18T20:24:11.819Z,93984.91
2017-08-18T20:26:39.692Z,93986.06
2017-08-18T20:29:07.543Z,93986.89
2017-08-18T20:31:35.389Z,93988.91
2017-08-18T20:34:03.229Z,93982.77
2017-08-18T20:36:30.965Z,93981.16
2017-08-18T20:38:58.752Z,93988.17
2017-08-18T20:41:27.256Z,93995.50
2017-08-18T20:43:55.000Z,93995.03
2017-08-18T20:46:22.757Z,93998.94
2017-08-18T20:48:50.555Z,93995.23
2017-08-18T20:51:18.259Z,94001.35
2017-08-18T20:53:46.031Z,94004.73
2017-08-18T20:56:13.931Z,94004.05
2017-08-18T20:58:41.684Z,93995.61
2017-08-18T21:01:09.461Z,93990.82
2017-08-18T21:03:37.179Z,93988.06
2017-08-18T21:06:04.966Z,93982.97
2017-08-18T21:08:32.732Z,93982.74
2017-08-18T21:11:00.456Z,93989.09
2017-08-18T21:13:28.263Z,93996.41
2017-08-18T21:15:56.067Z,93996.25
2017-08-18T21:18:23.883Z,93995.50
2017-08-18T21:20:52.000Z,93984.81
2017-08-18T21:23:19.934Z,93985.42
2017-08-18T21:25:49.123Z,93984.64
2017-08-18T21:28:17.404Z,93991.25
2017-08-18T21:30:45.151Z,94001.97
2017-08-18T21:33:13.283Z,93994.47
2017-08-18T21:35:41.048Z,94010.20
2017-08-18T21:38:08.863Z,94039.70
2017-08-18T21:40:37.579Z,94058.49
2017-08-18T21:43:05.320Z,94068.60
2017-08-18T21:45:33.143Z,94086.86
2017-08-18T21:48:00.942Z,94098.50
2017-08-18T21:50:28.718Z,94099.11
2017-08-18T21:52:56.790Z,94095.88
2017-08-18T21:55:24.628Z,94086.91
2017-08-18T21:57:52.465Z,94081.55
2017-08-18T22:00:20.189Z,94104.80
2017-08-18T22:02:48.021Z,94098.11
2017-08-18T22:05:15.781Z,94109.61
2017-08-18T22:07:43.552Z,94108.92
2017-08-18T22:10:11.291Z,94136.45
2017-08-18T22:12:39.000Z,94166.02
2017-08-18T22:15:06.789Z,94174.43
2017-08-18T22:17:34.599Z,94202.77
2017-08-18T22:20:02.327Z,94211.72
2017-08-18T22:22:30.064Z,94212.00
2017-08-18T22:24:57.816Z,94215.41
2017-08-18T22:27:25.567Z,94227.19
2017-08-18T22:30:10.158Z,94237.17
2017-08-18T22:32:38.143Z,94246.16
2017-08-18T22:35:06.014Z,94248.28
2017-08-18T22:37:33.780Z,94256.42
2017-08-18T22:40:01.543Z,94258.38
2017-08-18T22:42:29.300Z,94264.22
2017-08-18T22:44:57.197Z,94271.09
2017-08-18T22:47:25.229Z,94267.47
2017-08-18T22:49:53.120Z,94271.09
2017-08-18T22:52:20.924Z,94273.25
2017-08-18T22:54:48.775Z,94276.33
2017-08-18T22:57:16.481Z,94285.79
2017-08-18T22:59:44.230Z,94277.51
2017-08-18T23:02:11.955Z,94275.46
2017-08-18T23:04:39.748Z,94282.27
2017-08-18T23:07:07.500Z,94286.34
2017-08-18T23:09:35.259Z,94285.31
2017-08-18T23:12:02.984Z,94288.50
2017-08-18T23:14:30.760Z,94290.04
2017-08-18T23:16:58.532Z,94287.96
2017-08-18T23:19:26.231Z,94290.19
2017-08-18T23:21:53.947Z,94293.91
2017-08-18T23:24:21.743Z,94292.87
2017-08-18T23:26:49.465Z,94291.52
2017-08-18T23:29:17.156Z,94286.88
2017-08-18T23:31:44.873Z,94283.61
2017-08-18T23:34:12.558Z,94283.56
2017-08-18T23:36:40.265Z,94284.73
2017-08-18T23:39:07.998Z,94285.09
2017-08-18T23:41:36.798Z,94292.23
2017-08-18T23:44:04.500Z,94285.42
2017-08-18T23:46:32.260Z,94286.85
2017-08-18T23:49:00.054Z,94283.59
2017-08-18T23:51:27.828Z,94282.95
2017-08-18T23:53:55.528Z,94279.63
2017-08-18T23:56:23.227Z,94275.88
2017-08-18T23:58:51.027Z,94275.23
